createdAt,value
2019-05-17T00:01:47.017Z,11.70
2019-05-17T00:04:16.768Z,12.13
2019-05-17T00:06:47.623Z,16.37
2019-05-17T00:09:17.734Z,11.77
2019-05-17T00:11:47.517Z,11.63
2019-05-17T00:14:18.710Z,12.50
2019-05-17T00:16:48.228Z,12.37
2019-05-17T00:19:17.778Z,11.80
2019-05-17T00:21:47.620Z,12.07
2019-05-17T00:24:18.313Z,11.93
2019-05-17T00:26:48.040Z,11.33
2019-05-17T00:29:17.566Z,11.33
2019-05-17T00:31:47.088Z,10.77
2019-05-17T00:34:16.887Z,10.60
2019-05-17T00:36:47.041Z,11.57
2019-05-17T00:39:16.858Z,9.77
2019-05-17T00:41:46.980Z,11.40
2019-05-17T00:44:17.012Z,11.80
2019-05-17T00:46:46.871Z,11.03
2019-05-17T00:49:17.250Z,11.80
2019-05-17T00:51:47.448Z,10.77
2019-05-17T00:54:17.590Z,11.70
2019-05-17T00:56:47.280Z,11.80
2019-05-17T00:59:17.169Z,11.60
2019-05-17T01:01:47.016Z,12.70
2019-05-17T01:04:17.273Z,12.47
2019-05-17T01:06:47.148Z,12.23
2019-05-17T01:09:17.111Z,11.87
2019-05-17T01:11:47.435Z,12.90
2019-05-17T01:14:17.711Z,13.37
2019-05-17T01:16:47.713Z,11.77
2019-05-17T01:19:17.201Z,11.50
2019-05-17T01:21:47.458Z,11.67
2019-05-17T01:24:17.485Z,11.23
2019-05-17T01:26:47.148Z,12.20
2019-05-17T01:29:17.541Z,11.83
2019-05-17T01:31:47.457Z,11.10
2019-05-17T01:34:16.951Z,11.47
2019-05-17T01:36:46.634Z,11.10
2019-05-17T01:39:20.553Z,11.20
2019-05-17T01:41:47.450Z,12.70
2019-05-17T01:44:16.996Z,12.00
2019-05-17T01:46:46.694Z,11.13
2019-05-17T01:49:16.559Z,12.07
2019-05-17T01:51:46.638Z,11.33
2019-05-17T01:54:17.499Z,11.23
2019-05-17T01:56:47.340Z,12.47
2019-05-17T01:59:17.405Z,11.80
2019-05-17T02:01:48.672Z,11.37
2019-05-17T02:04:18.866Z,12.90
2019-05-17T02:06:48.455Z,11.83
2019-05-17T02:09:33.798Z,10.63
2019-05-17T02:11:49.615Z,10.47
2019-05-17T02:14:19.422Z,12.07
2019-05-17T02:16:49.395Z,11.50
2019-05-17T02:19:19.235Z,11.30
2019-05-17T02:21:48.731Z,11.60
2019-05-17T02:24:18.229Z,11.90
2019-05-17T02:26:48.717Z,12.23
2019-05-17T02:29:18.216Z,10.97
2019-05-17T02:31:48.783Z,13.47
2019-05-17T02:34:18.487Z,10.87
2019-05-17T02:36:48.177Z,11.73
2019-05-17T02:39:23.282Z,11.07
2019-05-17T02:41:53.316Z,11.37
2019-05-17T02:44:23.763Z,12.27
2019-05-17T02:46:53.977Z,11.93
2019-05-17T02:49:23.815Z,11.40
2019-05-17T02:51:53.353Z,11.60
2019-05-17T02:54:23.696Z,11.60
2019-05-17T02:56:54.532Z,10.47
2019-05-17T02:59:25.130Z,12.17
2019-05-17T03:01:54.764Z,12.03
2019-05-17T03:04:24.456Z,12.40
2019-05-17T03:07:03.741Z,13.10
2019-05-17T03:09:35.767Z,11.90
2019-05-17T03:12:05.507Z,13.00
2019-05-17T03:14:37.840Z,12.87
2019-05-17T03:17:07.445Z,12.70
2019-05-17T03:19:36.986Z,12.87
2019-05-17T03:22:33.201Z,12.50
2019-05-17T03:25:07.111Z,11.80
2019-05-17T03:27:44.809Z,12.73
2019-05-17T03:30:25.234Z,13.90
2019-05-17T03:32:57.216Z,12.30
2019-05-17T03:35:38.799Z,12.63
2019-05-17T03:38:15.674Z,12.80
2019-05-17T03:41:17.656Z,12.20
2019-05-17T03:43:22.602Z,14.80
2019-05-17T03:45:56.181Z,11.40
2019-05-17T03:48:37.862Z,11.67
2019-05-17T03:51:13.164Z,13.53
2019-05-17T03:53:45.328Z,14.57
2019-05-17T03:56:14.852Z,14.37
2019-05-17T03:58:44.338Z,13.90
2019-05-17T04:01:14.325Z,13.60
2019-05-17T04:03:43.987Z,12.23
2019-05-17T04:06:13.615Z,12.33
2019-05-17T04:08:43.116Z,14.27
2019-05-17T04:11:22.113Z,13.53
2019-05-17T04:13:43.839Z,15.33
2019-05-17T04:16:14.147Z,13.93
2019-05-17T04:18:43.998Z,14.00
2019-05-17T04:21:13.495Z,14.60
2019-05-17T04:23:43.204Z,13.60
2019-05-17T04:26:13.529Z,14.10
2019-05-17T04:28:44.215Z,12.17
2019-05-17T04:31:13.804Z,12.03
2019-05-17T04:33:43.375Z,13.33
2019-05-17T04:36:13.366Z,15.23
2019-05-17T04:38:43.706Z,14.00
2019-05-17T04:41:13.561Z,16.30
2019-05-17T04:43:43.221Z,16.83
2019-05-17T04:46:13.175Z,14.23
2019-05-17T04:48:43.879Z,14.20
2019-05-17T04:51:13.704Z,11.97
2019-05-17T04:53:43.330Z,12.27
2019-05-17T04:56:14.076Z,13.00
2019-05-17T04:58:43.938Z,16.10
2019-05-17T05:01:13.562Z,12.87
2019-05-17T05:03:43.281Z,14.20
2019-05-17T05:06:13.520Z,17.70
2019-05-17T05:08:43.230Z,12.90
2019-05-17T05:11:12.956Z,15.00
2019-05-17T05:13:42.799Z,14.47
2019-05-17T05:16:13.496Z,15.27
2019-05-17T05:18:43.358Z,15.10
2019-05-17T05:21:12.836Z,16.47
2019-05-17T05:23:42.562Z,15.10
2019-05-17T05:26:12.186Z,14.90
2019-05-17T05:28:42.060Z,14.90
2019-05-17T05:31:13.301Z,15.97
2019-05-17T05:33:42.732Z,15.37
2019-05-17T05:36:12.243Z,14.30
2019-05-17T05:38:42.274Z,15.63
2019-05-17T05:41:12.300Z,13.03
2019-05-17T05:43:42.128Z,13.80
2019-05-17T05:46:11.841Z,14.80
2019-05-17T05:48:41.716Z,14.23
2019-05-17T05:51:13.676Z,13.50
2019-05-17T05:53:42.616Z,13.47
2019-05-17T05:56:13.323Z,13.73
2019-05-17T05:58:43.061Z,13.37
2019-05-17T06:01:12.926Z,13.07
2019-05-17T06:03:42.510Z,21.20
2019-05-17T06:06:12.466Z,22.20
2019-05-17T06:08:42.115Z,18.43
2019-05-17T06:11:12.261Z,14.03
2019-05-17T06:13:42.034Z,15.43
2019-05-17T06:16:11.977Z,12.13
2019-05-17T06:18:42.471Z,13.57
2019-05-17T06:21:12.360Z,11.07
2019-05-17T06:23:42.542Z,12.20
2019-05-17T06:26:12.417Z,10.57
2019-05-17T06:28:42.623Z,11.73
2019-05-17T06:31:12.146Z,12.77
2019-05-17T06:33:42.179Z,16.03
2019-05-17T06:36:13.679Z,10.37
2019-05-17T06:38:43.222Z,12.20
2019-05-17T06:41:12.807Z,16.63
2019-05-17T06:43:42.276Z,15.00
2019-05-17T06:46:12.474Z,15.83
2019-05-17T06:48:42.494Z,13.50
2019-05-17T06:51:12.047Z,15.53
2019-05-17T06:53:43.615Z,12.27
2019-05-17T06:56:12.931Z,12.23
2019-05-17T06:58:42.609Z,15.57
2019-05-17T07:01:12.097Z,19.10
2019-05-17T07:03:41.595Z,14.00
2019-05-17T07:06:12.904Z,13.00
2019-05-17T07:08:42.415Z,14.87
2019-05-17T07:11:11.866Z,14.60
2019-05-17T07:13:41.346Z,11.90
2019-05-17T07:16:10.871Z,11.77
2019-05-17T07:18:40.452Z,12.67
2019-05-17T07:21:10.196Z,10.80
2019-05-17T07:23:39.828Z,12.57
2019-05-17T07:26:11.990Z,11.97
2019-05-17T07:28:40.828Z,13.47
2019-05-17T07:31:10.619Z,12.47
2019-05-17T07:33:40.140Z,11.30
2019-05-17T07:36:10.197Z,13.40
2019-05-17T07:38:39.912Z,13.20
2019-05-17T07:41:10.114Z,13.27
2019-05-17T07:43:40.509Z,14.07
2019-05-17T07:46:10.235Z,11.70
2019-05-17T07:48:40.477Z,11.33
2019-05-17T07:51:10.218Z,12.03
2019-05-17T07:53:40.150Z,14.77
2019-05-17T07:56:10.275Z,12.23
2019-05-17T07:58:40.524Z,11.70
2019-05-17T08:01:10.256Z,11.80
2019-05-17T08:03:40.517Z,11.80
2019-05-17T08:06:10.658Z,12.50
2019-05-17T08:08:41.058Z,10.83
2019-05-17T08:11:10.878Z,13.80
2019-05-17T08:13:40.379Z,14.47
2019-05-17T08:16:10.423Z,12.43
2019-05-17T08:18:40.467Z,12.30
2019-05-17T08:21:10.453Z,13.33
2019-05-17T08:23:40.257Z,12.63
2019-05-17T08:26:10.731Z,11.93
2019-05-17T08:28:40.681Z,11.47
2019-05-17T08:31:10.250Z,12.73
2019-05-17T08:33:40.694Z,20.80
2019-05-17T08:36:10.210Z,12.33
2019-05-17T08:38:39.712Z,18.03
2019-05-17T08:41:10.536Z,12.60
2019-05-17T08:43:46.622Z,12.50
2019-05-17T08:46:11.398Z,12.80
2019-05-17T08:48:40.916Z,13.33
2019-05-17T08:51:10.870Z,22.67
2019-05-17T08:53:40.387Z,14.93
2019-05-17T08:56:10.125Z,16.10
2019-05-17T08:58:40.343Z,18.80
2019-05-17T09:01:11.136Z,13.80
2019-05-17T09:03:41.337Z,14.30
2019-05-17T09:06:12.423Z,14.17
2019-05-17T09:08:42.153Z,14.70
2019-05-17T09:11:11.658Z,13.10
2019-05-17T09:13:54.366Z,14.70
2019-05-17T09:16:12.339Z,13.87
2019-05-17T09:18:41.917Z,14.37
2019-05-17T09:21:11.442Z,15.90
2019-05-17T09:23:40.969Z,14.20
2019-05-17T09:26:10.440Z,13.00
2019-05-17T09:28:39.945Z,13.40
2019-05-17T09:31:10.453Z,13.23
2019-05-17T09:33:40.706Z,11.63
2019-05-17T09:36:10.318Z,13.63
2019-05-17T09:38:40.402Z,13.73
2019-05-17T09:41:10.144Z,12.80
2019-05-17T09:43:40.263Z,11.47
2019-05-17T09:46:10.689Z,13.13
2019-05-17T09:48:40.447Z,14.33
2019-05-17T09:51:10.618Z,12.00
2019-05-17T09:53:40.301Z,11.73
2019-05-17T09:56:10.054Z,12.77
2019-05-17T09:58:39.993Z,11.83
2019-05-17T10:01:09.661Z,12.73
2019-05-17T10:03:39.800Z,11.23
2019-05-17T10:06:09.810Z,11.60
2019-05-17T10:08:39.558Z,11.50
2019-05-17T10:11:12.024Z,11.80
2019-05-17T10:13:40.330Z,12.00
2019-05-17T10:16:10.219Z,10.97
2019-05-17T10:18:40.191Z,13.00
2019-05-17T10:21:10.447Z,11.40
2019-05-17T10:23:40.616Z,14.00
2019-05-17T10:26:10.411Z,13.13
2019-05-17T10:28:40.119Z,13.07
2019-05-17T10:31:11.353Z,12.97
2019-05-17T10:33:40.902Z,11.10
2019-05-17T10:36:10.362Z,11.73
2019-05-17T10:38:39.854Z,12.70
2019-05-17T10:41:10.164Z,10.50
2019-05-17T10:43:39.856Z,10.43
2019-05-17T10:46:10.551Z,10.63
2019-05-17T10:48:41.166Z,15.93
2019-05-17T10:51:13.364Z,10.70
2019-05-17T10:53:42.036Z,11.20
2019-05-17T10:56:11.529Z,10.83
2019-05-17T10:58:41.083Z,11.73
2019-05-17T11:01:10.533Z,12.63
2019-05-17T11:03:39.989Z,12.20
2019-05-17T11:06:10.978Z,11.97
2019-05-17T11:08:40.595Z,11.53
2019-05-17T11:11:10.308Z,11.77
2019-05-17T11:13:39.847Z,9.13
2019-05-17T11:16:09.292Z,9.87
2019-05-17T11:18:38.848Z,9.77
2019-05-17T11:21:08.326Z,9.57
2019-05-17T11:23:37.795Z,9.47
2019-05-17T11:26:07.255Z,9.03
2019-05-17T11:28:36.704Z,9.90
2019-05-17T11:31:06.206Z,9.87
2019-05-17T11:33:35.668Z,8.73
2019-05-17T11:36:05.159Z,8.97
2019-05-17T11:38:34.599Z,8.17
2019-05-17T11:41:19.773Z,9.40
2019-05-17T11:43:35.299Z,9.63
2019-05-17T11:46:05.156Z,10.10
2019-05-17T11:48:34.644Z,11.60
2019-05-17T11:51:04.091Z,9.47
2019-05-17T11:53:33.573Z,9.93
2019-05-17T11:56:03.049Z,12.30
2019-05-17T11:58:32.505Z,9.07
2019-05-17T12:01:01.972Z,9.73
2019-05-17T12:03:31.473Z,10.10
2019-05-17T12:06:00.902Z,9.83
2019-05-17T12:08:30.343Z,14.23
2019-05-17T12:11:00.294Z,11.17
2019-05-17T12:13:30.167Z,9.37
2019-05-17T12:15:59.962Z,11.07
2019-05-17T12:18:32.543Z,9.80
2019-05-17T12:21:02.033Z,8.63
2019-05-17T12:23:31.503Z,10.57
2019-05-17T12:26:00.967Z,11.13
2019-05-17T12:28:30.428Z,9.53
2019-05-17T12:30:59.914Z,10.73
2019-05-17T12:33:29.379Z,10.00
2019-05-17T12:35:58.858Z,10.40
2019-05-17T12:38:28.344Z,8.87
2019-05-17T12:40:57.817Z,9.07
2019-05-17T12:43:27.301Z,9.93
2019-05-17T12:46:00.735Z,9.33
2019-05-17T12:48:27.938Z,9.20
2019-05-17T12:50:57.501Z,9.13
2019-05-17T12:53:26.972Z,9.03
2019-05-17T12:55:56.423Z,11.17
2019-05-17T12:58:25.886Z,9.40
2019-05-17T13:00:55.342Z,9.47
2019-05-17T13:03:24.817Z,9.53
2019-05-17T13:05:54.301Z,9.33
2019-05-17T13:08:23.854Z,9.73
2019-05-17T13:10:53.337Z,9.33
2019-05-17T13:13:22.814Z,8.77
2019-05-17T13:15:52.302Z,10.77
2019-05-17T13:18:21.809Z,7.80
2019-05-17T13:20:51.270Z,8.50
2019-05-17T13:23:20.783Z,8.33
2019-05-17T13:25:50.210Z,8.80
2019-05-17T13:28:20.426Z,7.87
2019-05-17T13:30:49.887Z,7.40
2019-05-17T13:33:19.336Z,7.23
2019-05-17T13:35:48.829Z,7.70
2019-05-17T13:38:18.340Z,8.37
2019-05-17T13:40:47.957Z,7.90
2019-05-17T13:43:17.441Z,6.70
2019-05-17T13:45:47.014Z,7.33
2019-05-17T13:48:16.536Z,7.00
2019-05-17T13:50:46.045Z,6.27
2019-05-17T13:53:15.578Z,7.70
2019-05-17T13:55:45.062Z,6.03
2019-05-17T13:58:14.530Z,6.30
2019-05-17T14:00:44.030Z,6.00
2019-05-17T14:03:13.573Z,6.53
2019-05-17T14:05:43.054Z,6.30
2019-05-17T14:08:12.525Z,6.00
2019-05-17T14:10:41.976Z,5.63
2019-05-17T14:13:11.435Z,6.67
2019-05-17T14:15:40.994Z,6.83
2019-05-17T14:18:10.486Z,6.33
2019-05-17T14:20:39.936Z,6.93
2019-05-17T14:23:09.405Z,12.07
2019-05-17T14:25:38.991Z,7.33
2019-05-17T14:28:11.333Z,7.87
2019-05-17T14:30:39.792Z,6.23
2019-05-17T14:33:09.251Z,7.23
2019-05-17T14:35:38.729Z,7.83
2019-05-17T14:38:08.198Z,7.30
2019-05-17T14:41:04.785Z,8.77
2019-05-17T14:43:08.888Z,10.53
2019-05-17T14:45:38.373Z,6.67
2019-05-17T14:48:08.355Z,7.47
2019-05-17T14:50:37.920Z,7.80
2019-05-17T14:53:07.411Z,6.80
2019-05-17T14:55:36.861Z,8.17
2019-05-17T14:58:06.455Z,6.73
2019-05-17T15:00:35.920Z,9.40
2019-05-17T15:03:07.526Z,6.97
2019-05-17T15:05:36.609Z,9.03
2019-05-17T15:08:06.145Z,6.37
2019-05-17T15:10:35.712Z,7.80
2019-05-17T15:13:05.241Z,7.43
2019-05-17T15:15:34.754Z,7.87
2019-05-17T15:18:04.246Z,7.87
2019-05-17T15:20:33.709Z,8.70
2019-05-17T15:23:03.188Z,7.30
2019-05-17T15:25:33.168Z,7.53
2019-05-17T15:28:02.613Z,7.60
2019-05-17T15:30:32.150Z,7.53
2019-05-17T15:33:01.629Z,8.17
2019-05-17T15:35:31.079Z,9.10
2019-05-17T15:38:03.765Z,8.30
2019-05-17T15:40:33.215Z,9.07
2019-05-17T15:43:02.727Z,9.17
2019-05-17T15:45:32.165Z,11.00
2019-05-17T15:48:01.908Z,8.77
2019-05-17T15:50:31.543Z,8.60
2019-05-17T15:53:01.075Z,8.70
2019-05-17T15:55:30.527Z,9.83
2019-05-17T15:58:00.026Z,10.87
2019-05-17T16:00:29.540Z,10.40
2019-05-17T16:02:59.023Z,12.97
2019-05-17T16:05:28.478Z,11.83
2019-05-17T16:07:58.070Z,11.17
2019-05-17T16:10:27.793Z,9.80
2019-05-17T16:13:03.182Z,10.90
2019-05-17T16:15:29.777Z,11.03
2019-05-17T16:17:59.488Z,10.90
2019-05-17T16:20:29.737Z,9.90
2019-05-17T16:22:59.226Z,12.00
2019-05-17T16:25:28.758Z,11.43
2019-05-17T16:27:58.228Z,23.10
2019-05-17T16:30:27.708Z,14.27
2019-05-17T16:32:57.283Z,14.87
2019-05-17T16:35:26.961Z,11.80
2019-05-17T16:37:56.424Z,9.90
2019-05-17T16:40:25.954Z,11.60
2019-05-17T16:42:55.480Z,11.37
2019-05-17T16:45:24.959Z,10.83
2019-05-17T16:47:54.433Z,8.93
2019-05-17T16:50:23.962Z,9.40
2019-05-17T16:53:05.038Z,11.67
2019-05-17T16:55:26.138Z,11.13
2019-05-17T16:57:55.847Z,10.50
2019-05-17T17:00:38.152Z,9.67
2019-05-17T17:03:07.747Z,11.43
2019-05-17T17:05:37.350Z,8.30
2019-05-17T17:08:07.341Z,18.40
2019-05-17T17:10:37.397Z,7.97
2019-05-17T17:13:07.114Z,36.07
2019-05-17T17:15:36.671Z,8.47
2019-05-17T17:18:06.274Z,17.47
2019-05-17T17:20:35.760Z,30.63
2019-05-17T17:23:05.235Z,6.87
2019-05-17T17:25:34.787Z,6.73
2019-05-17T17:28:06.141Z,7.67
2019-05-17T17:30:35.461Z,6.80
2019-05-17T17:33:05.007Z,6.93
2019-05-17T17:35:34.502Z,6.80
2019-05-17T17:38:03.965Z,7.37
2019-05-17T17:40:33.459Z,6.80
2019-05-17T17:43:03.072Z,7.60
2019-05-17T17:45:32.693Z,7.63
2019-05-17T17:48:02.172Z,7.20
2019-05-17T17:50:31.948Z,6.80
2019-05-17T17:53:01.518Z,6.40
2019-05-17T17:55:31.058Z,6.63
2019-05-17T17:58:00.544Z,6.97
2019-05-17T18:00:30.076Z,9.07
2019-05-17T18:02:59.514Z,7.17
2019-05-17T18:05:29.060Z,7.23
2019-05-17T18:07:58.545Z,7.97
2019-05-17T18:10:33.259Z,7.57
2019-05-17T18:13:02.883Z,7.67
2019-05-17T18:15:37.341Z,7.83
2019-05-17T18:18:07.002Z,9.77
2019-05-17T18:20:36.603Z,8.37
2019-05-17T18:23:06.293Z,10.00
2019-05-17T18:25:36.093Z,10.30
2019-05-17T18:28:05.936Z,11.13
2019-05-17T18:30:35.582Z,20.97
2019-05-17T18:33:05.372Z,38.53
2019-05-17T18:35:35.193Z,13.40
2019-05-17T18:38:05.350Z,15.70
2019-05-17T18:40:34.955Z,15.57
2019-05-17T18:43:04.662Z,9.83
2019-05-17T18:45:34.199Z,9.80
2019-05-17T18:48:04.725Z,11.30
2019-05-17T18:50:34.213Z,9.27
2019-05-17T18:53:05.218Z,10.73
2019-05-17T18:55:35.498Z,10.57
2019-05-17T18:58:05.135Z,13.40
2019-05-17T19:00:34.670Z,10.83
2019-05-17T19:03:04.288Z,12.27
2019-05-17T19:05:33.814Z,10.30
2019-05-17T19:08:03.322Z,10.80
2019-05-17T19:10:32.839Z,15.43
2019-05-17T19:13:02.394Z,10.03
2019-05-17T19:15:31.926Z,10.67
2019-05-17T19:18:01.486Z,12.07
2019-05-17T19:20:30.986Z,10.77
2019-05-17T19:23:00.507Z,11.27
2019-05-17T19:25:30.000Z,11.10
2019-05-17T19:27:59.571Z,16.03
2019-05-17T19:30:29.016Z,13.03
2019-05-17T19:32:58.506Z,13.57
2019-05-17T19:35:28.103Z,13.43
2019-05-17T19:37:57.658Z,13.57
2019-05-17T19:40:27.138Z,13.27
2019-05-17T19:42:56.619Z,15.40
2019-05-17T19:45:26.130Z,15.30
2019-05-17T19:47:55.684Z,13.17
2019-05-17T19:50:25.181Z,13.87
2019-05-17T19:52:54.689Z,12.57
2019-05-17T19:55:24.235Z,15.97
2019-05-17T19:57:53.750Z,15.60
2019-05-17T20:00:23.604Z,15.67
2019-05-17T20:02:53.768Z,17.97
2019-05-17T20:05:23.329Z,30.17
2019-05-17T20:07:52.849Z,26.17
2019-05-17T20:10:22.741Z,24.00
2019-05-17T20:12:52.231Z,19.37
2019-05-17T20:15:33.493Z,21.90
2019-05-17T20:17:52.996Z,22.53
2019-05-17T20:20:22.470Z,20.20
2019-05-17T20:22:51.957Z,20.20
2019-05-17T20:25:21.475Z,18.90
2019-05-17T20:27:50.988Z,17.80
2019-05-17T20:30:20.647Z,17.50
2019-05-17T20:32:50.123Z,21.37
2019-05-17T20:35:19.765Z,25.60
2019-05-17T20:37:49.317Z,26.93
2019-05-17T20:40:18.983Z,32.20
2019-05-17T20:42:48.443Z,26.77
2019-05-17T20:45:32.025Z,20.67
2019-05-17T20:47:49.306Z,26.37
2019-05-17T20:50:18.994Z,25.87
2019-05-17T20:52:48.468Z,26.67
2019-05-17T20:55:18.088Z,28.30
2019-05-17T20:57:47.613Z,23.33
2019-05-17T21:00:17.646Z,20.97
2019-05-17T21:02:47.107Z,20.43
2019-05-17T21:05:19.226Z,19.93
2019-05-17T21:07:48.739Z,19.83
2019-05-17T21:10:18.612Z,22.30
2019-05-17T21:12:48.105Z,20.37
2019-05-17T21:15:17.703Z,19.87
2019-05-17T21:17:47.214Z,20.83
2019-05-17T21:20:16.894Z,24.87
2019-05-17T21:22:46.383Z,19.87
2019-05-17T21:25:15.977Z,19.50
2019-05-17T21:27:45.495Z,20.80
2019-05-17T21:30:15.993Z,22.57
2019-05-17T21:32:45.465Z,21.47
2019-05-17T21:35:15.287Z,21.43
2019-05-17T21:37:44.768Z,24.80
2019-05-17T21:40:14.892Z,21.60
2019-05-17T21:42:44.354Z,21.70
2019-05-17T21:45:14.927Z,20.37
2019-05-17T21:47:46.821Z,24.20
2019-05-17T21:50:16.768Z,21.47
2019-05-17T21:52:47.639Z,23.73
2019-05-17T21:55:17.110Z,18.47
2019-05-17T21:57:46.560Z,19.83
2019-05-17T22:00:25.349Z,22.57
2019-05-17T22:02:54.784Z,26.90
2019-05-17T22:05:24.249Z,20.83
2019-05-17T22:07:53.739Z,15.87
2019-05-17T22:10:23.264Z,18.67
2019-05-17T22:12:52.735Z,20.10
2019-05-17T22:15:22.222Z,24.23
2019-05-17T22:17:51.683Z,21.50
2019-05-17T22:20:21.231Z,20.63
2019-05-17T22:22:51.141Z,21.83
2019-05-17T22:25:20.599Z,21.00
2019-05-17T22:27:50.141Z,26.43
2019-05-17T22:30:19.617Z,28.67
2019-05-17T22:32:49.102Z,29.73
2019-05-17T22:35:18.576Z,33.37
2019-05-17T22:37:48.046Z,23.50
2019-05-17T22:40:19.533Z,27.17
2019-05-17T22:42:48.990Z,25.67
2019-05-17T22:45:18.467Z,27.47
2019-05-17T22:47:47.907Z,27.23
2019-05-17T22:50:17.413Z,24.00
2019-05-17T22:52:46.888Z,28.07
2019-05-17T22:55:16.350Z,26.27
2019-05-17T22:57:45.788Z,28.37
2019-05-17T23:00:15.752Z,25.97
2019-05-17T23:02:45.227Z,26.00
2019-05-17T23:05:14.692Z,25.73
2019-05-17T23:07:44.180Z,23.60
2019-05-17T23:10:13.972Z,21.57
2019-05-17T23:12:43.437Z,26.00
2019-05-17T23:15:13.042Z,23.33
2019-05-17T23:17:42.565Z,25.50
2019-05-17T23:20:12.575Z,22.87
2019-05-17T23:22:42.053Z,23.47
2019-05-17T23:25:11.553Z,26.07
2019-05-17T23:27:41.020Z,26.13
2019-05-17T23:30:10.713Z,24.47
2019-05-17T23:32:40.182Z,27.90
2019-05-17T23:35:09.681Z,33.20
2019-05-17T23:37:39.160Z,26.60
2019-05-17T23:40:08.726Z,24.17
2019-05-17T23:42:38.210Z,27.63
2019-05-17T23:45:08.511Z,24.33
2019-05-17T23:47:37.959Z,32.57
2019-05-17T23:50:07.889Z,20.30
2019-05-17T23:52:37.347Z,22.00
2019-05-17T23:55:08.102Z,22.90
2019-05-17T23:57:37.553Z,22.80
